createdAt,value
2023-05-10T00:00:49.027Z,10.90
2023-05-10T00:02:21.383Z,10.90
2023-05-10T00:03:53.669Z,10.91
2023-05-10T00:05:25.859Z,10.91
2023-05-10T00:06:58.085Z,10.92
2023-05-10T00:08:30.207Z,10.91
2023-05-10T00:10:02.246Z,10.91
2023-05-10T00:11:34.384Z,10.92
2023-05-10T00:13:09.308Z,10.92
2023-05-10T00:14:41.403Z,10.92
2023-05-10T00:16:14.477Z,10.93
2023-05-10T00:17:46.725Z,10.94
2023-05-10T00:19:19.066Z,10.95
2023-05-10T00:20:51.364Z,10.98
2023-05-10T00:22:23.570Z,10.98
2023-05-10T00:23:56.452Z,10.99
2023-05-10T00:25:28.659Z,10.99
2023-05-10T00:27:02.080Z,11.00
2023-05-10T00:28:34.026Z,11.04
2023-05-10T00:30:07.703Z,11.00
2023-05-10T00:31:39.905Z,10.99
2023-05-10T00:33:12.946Z,10.97
2023-05-10T00:34:47.745Z,10.98
2023-05-10T00:36:19.895Z,10.97
2023-05-10T00:37:51.998Z,10.96
2023-05-10T00:39:24.099Z,10.96
2023-05-10T00:40:56.447Z,10.96
2023-05-10T00:42:28.535Z,10.98
2023-05-10T00:45:39.283Z,10.95
2023-05-10T00:47:12.230Z,10.97
2023-05-10T00:48:45.301Z,10.99
2023-05-10T00:50:18.097Z,10.98
2023-05-10T00:51:51.019Z,10.98
2023-05-10T00:53:23.396Z,11.00
2023-05-10T00:54:56.115Z,11.02
2023-05-10T00:56:29.840Z,11.02
2023-05-10T00:58:02.941Z,11.02
2023-05-10T00:59:35.517Z,11.04
2023-05-10T01:01:08.437Z,11.02
2023-05-10T01:02:40.996Z,11.02
2023-05-10T01:04:17.170Z,11.03
2023-05-10T01:05:49.297Z,11.02
2023-05-10T01:07:21.380Z,11.01
2023-05-10T01:08:53.420Z,11.00
2023-05-10T01:10:25.641Z,10.97
2023-05-10T01:11:58.095Z,10.98
2023-05-10T01:13:34.860Z,11.01
2023-05-10T01:15:08.620Z,11.01
2023-05-10T01:16:42.204Z,10.99
2023-05-10T01:19:46.048Z,10.91
2023-05-10T01:21:44.908Z,10.96
2023-05-10T01:23:44.506Z,10.94
2023-05-10T01:25:44.506Z,10.87
2023-05-10T01:27:25.864Z,10.82
2023-05-10T01:29:20.024Z,10.88
2023-05-10T01:31:28.616Z,10.84
2023-05-10T01:33:19.776Z,10.81
2023-05-10T01:34:58.719Z,10.78
2023-05-10T01:36:52.795Z,10.77
2023-05-10T01:38:44.943Z,10.78
2023-05-10T01:40:52.858Z,10.76
2023-05-10T01:42:27.710Z,10.77
2023-05-10T01:44:25.092Z,10.76
2023-05-10T01:46:06.102Z,10.81
2023-05-10T01:49:14.743Z,10.78
2023-05-10T01:50:48.084Z,10.79
2023-05-10T01:52:22.274Z,10.82
2023-05-10T01:54:02.132Z,10.84
2023-05-10T01:55:37.011Z,10.82
2023-05-10T01:57:10.477Z,10.87
2023-05-10T01:58:43.639Z,10.91
2023-05-10T02:00:16.481Z,10.89
2023-05-10T02:01:49.330Z,10.87
2023-05-10T02:03:26.125Z,10.86
2023-05-10T02:04:58.813Z,10.86
2023-05-10T02:06:32.057Z,10.80
2023-05-10T02:08:10.463Z,10.82
2023-05-10T02:09:44.672Z,10.79
2023-05-10T02:11:17.083Z,10.79
2023-05-10T02:12:49.759Z,10.76
2023-05-10T02:14:22.660Z,10.77
2023-05-10T02:15:55.125Z,10.77
2023-05-10T02:17:27.817Z,10.78
2023-05-10T02:19:00.903Z,10.79
2023-05-10T02:20:33.345Z,10.77
2023-05-10T02:23:42.284Z,10.69
2023-05-10T02:25:14.970Z,10.72
2023-05-10T02:26:49.067Z,10.78
2023-05-10T02:28:22.829Z,10.77
2023-05-10T02:29:56.031Z,10.79
2023-05-10T02:31:28.241Z,10.78
2023-05-10T02:33:01.347Z,10.82
2023-05-10T02:34:33.957Z,10.79
2023-05-10T02:36:07.182Z,10.80
2023-05-10T02:37:40.293Z,10.78
2023-05-10T02:39:14.876Z,10.76
2023-05-10T02:40:47.896Z,10.78
2023-05-10T02:42:21.591Z,10.77
2023-05-10T02:43:57.678Z,10.76
2023-05-10T02:45:32.015Z,10.73
2023-05-10T02:47:05.433Z,10.72
2023-05-10T02:48:37.303Z,10.77
2023-05-10T02:50:10.026Z,10.73
2023-05-10T02:51:54.077Z,10.78
2023-05-10T02:53:33.214Z,10.80
2023-05-10T02:55:07.010Z,10.76
2023-05-10T02:56:44.309Z,10.79
2023-05-10T02:58:16.469Z,10.70
2023-05-10T02:59:48.688Z,10.71
2023-05-10T03:01:20.883Z,10.67
2023-05-10T03:02:53.443Z,10.66
2023-05-10T03:04:25.579Z,10.61
2023-05-10T03:05:58.077Z,10.56
2023-05-10T03:09:03.842Z,10.55
2023-05-10T03:10:42.260Z,10.53
2023-05-10T03:12:24.610Z,10.52
2023-05-10T03:14:04.907Z,10.56
2023-05-10T03:15:55.485Z,10.59
2023-05-10T03:17:32.690Z,10.63
2023-05-10T03:19:19.706Z,10.68
2023-05-10T03:20:53.076Z,10.66
2023-05-10T03:22:26.726Z,10.68
2023-05-10T03:24:07.784Z,10.66
2023-05-10T03:25:42.336Z,10.63
2023-05-10T03:27:16.064Z,10.61
2023-05-10T03:28:49.691Z,10.58
2023-05-10T03:30:22.092Z,10.52
2023-05-10T03:31:54.226Z,10.54
2023-05-10T03:33:26.426Z,10.51
2023-05-10T03:34:58.534Z,10.52
2023-05-10T03:36:33.458Z,10.52
2023-05-10T03:38:05.838Z,10.52
2023-05-10T03:39:38.130Z,10.52
2023-05-10T03:41:10.287Z,10.51
2023-05-10T03:44:14.315Z,10.54
2023-05-10T03:45:46.488Z,10.57
2023-05-10T03:47:18.593Z,10.60
2023-05-10T03:48:50.701Z,10.59
2023-05-10T03:50:22.987Z,10.59
2023-05-10T03:51:56.190Z,10.64
2023-05-10T03:53:28.439Z,10.60
2023-05-10T03:55:00.554Z,10.62
2023-05-10T03:56:32.874Z,10.62
2023-05-10T03:58:04.966Z,10.62
2023-05-10T03:59:37.311Z,10.61
2023-05-10T04:01:09.458Z,10.62
2023-05-10T04:02:41.833Z,10.61
2023-05-10T04:04:14.039Z,10.61
2023-05-10T04:05:46.330Z,10.60
2023-05-10T04:07:19.442Z,10.62
2023-05-10T04:08:51.635Z,10.58
2023-05-10T04:10:23.699Z,10.56
2023-05-10T04:11:55.882Z,10.56
2023-05-10T04:13:28.127Z,10.53
2023-05-10T04:15:00.389Z,10.57
2023-05-10T04:16:32.552Z,10.58
2023-05-10T04:18:06.511Z,10.60
2023-05-10T04:19:40.139Z,10.61
2023-05-10T04:21:15.513Z,10.63
2023-05-10T04:22:47.705Z,10.65
2023-05-10T04:24:19.905Z,10.67
2023-05-10T04:25:52.035Z,10.67
2023-05-10T04:27:24.262Z,10.68
2023-05-10T04:28:56.439Z,10.67
2023-05-10T04:30:31.279Z,10.69
2023-05-10T04:32:03.577Z,10.71
2023-05-10T04:33:36.955Z,10.71
2023-05-10T04:35:09.191Z,10.78
2023-05-10T04:36:41.326Z,10.71
2023-05-10T04:38:13.539Z,10.72
2023-05-10T04:39:45.989Z,10.75
2023-05-10T04:41:18.230Z,10.77
2023-05-10T04:42:50.431Z,10.77
2023-05-10T04:44:22.625Z,10.79
2023-05-10T04:45:58.338Z,10.71
2023-05-10T04:47:30.457Z,10.64
2023-05-10T04:49:02.633Z,10.66
2023-05-10T04:50:34.921Z,10.68
2023-05-10T04:52:07.090Z,10.70
2023-05-10T04:53:39.574Z,10.79
2023-05-10T04:55:11.843Z,10.82
2023-05-10T04:56:46.749Z,10.92
2023-05-10T04:58:18.913Z,10.90
2023-05-10T04:59:51.097Z,10.90
2023-05-10T05:01:24.509Z,10.96
2023-05-10T05:02:56.771Z,10.96
2023-05-10T05:04:29.068Z,10.98
2023-05-10T05:06:01.379Z,10.96
2023-05-10T05:07:33.815Z,10.97
2023-05-10T05:09:05.998Z,10.94
2023-05-10T05:10:38.203Z,10.84
2023-05-10T05:12:11.312Z,10.80
2023-05-10T05:13:43.469Z,10.81
2023-05-10T05:15:16.773Z,10.81
2023-05-10T05:16:48.922Z,10.85
2023-05-10T05:18:21.071Z,10.86
2023-05-10T05:19:53.255Z,10.89
2023-05-10T05:21:26.519Z,10.91
2023-05-10T05:22:58.612Z,10.93
2023-05-10T05:24:30.686Z,10.83
2023-05-10T05:26:02.876Z,10.89
2023-05-10T05:29:17.253Z,10.89
2023-05-10T05:30:49.559Z,10.98
2023-05-10T05:32:21.898Z,10.99
2023-05-10T05:33:54.133Z,10.98
2023-05-10T05:35:26.376Z,11.05
2023-05-10T05:36:58.574Z,11.07
2023-05-10T05:38:30.730Z,11.11
2023-05-10T05:40:03.200Z,11.17
2023-05-10T05:41:35.401Z,11.23
2023-05-10T05:43:07.595Z,11.28
2023-05-10T05:44:39.949Z,11.32
2023-05-10T05:46:12.148Z,11.30
2023-05-10T05:47:44.362Z,11.28
2023-05-10T05:49:16.541Z,11.33
2023-05-10T05:50:51.547Z,11.32
2023-05-10T05:52:24.386Z,11.33
2023-05-10T05:53:56.995Z,11.37
2023-05-10T05:55:29.212Z,11.41
2023-05-10T05:57:02.291Z,11.41
2023-05-10T05:58:34.477Z,11.46
2023-05-10T06:00:07.440Z,11.47
2023-05-10T06:03:18.553Z,11.54
2023-05-10T06:04:50.949Z,11.53
2023-05-10T06:06:23.080Z,11.53
2023-05-10T06:07:55.251Z,11.49
2023-05-10T06:09:27.415Z,11.54
2023-05-10T06:10:59.529Z,11.60
2023-05-10T06:12:31.792Z,11.63
2023-05-10T06:14:09.281Z,11.66
2023-05-10T06:15:44.098Z,11.70
2023-05-10T06:17:16.220Z,11.70
2023-05-10T06:18:48.418Z,11.78
2023-05-10T06:20:20.558Z,11.78
2023-05-10T06:21:53.837Z,11.81
2023-05-10T06:23:26.859Z,11.88
2023-05-10T06:24:59.016Z,11.82
2023-05-10T06:26:31.437Z,11.85
2023-05-10T06:28:03.680Z,11.90
2023-05-10T06:29:35.784Z,11.93
2023-05-10T06:31:08.246Z,11.93
2023-05-10T06:32:40.513Z,11.95
2023-05-10T06:34:13.153Z,11.95
2023-05-10T06:35:45.357Z,11.98
2023-05-10T06:37:17.516Z,11.96
2023-05-10T06:38:49.955Z,11.99
2023-05-10T06:40:22.180Z,12.01
2023-05-10T06:41:54.625Z,11.98
2023-05-10T06:43:27.647Z,12.03
2023-05-10T06:44:59.754Z,12.04
2023-05-10T06:46:32.001Z,12.03
2023-05-10T06:48:04.427Z,12.02
2023-05-10T06:49:36.887Z,12.01
2023-05-10T06:51:08.981Z,12.03
2023-05-10T06:52:41.512Z,12.05
2023-05-10T06:54:13.794Z,12.08
2023-05-10T06:55:45.990Z,12.12
2023-05-10T06:57:30.521Z,12.17
2023-05-10T06:59:04.387Z,12.21
2023-05-10T07:02:08.473Z,12.11
2023-05-10T07:03:40.706Z,12.20
2023-05-10T07:05:13.753Z,12.21
2023-05-10T07:06:47.752Z,12.25
2023-05-10T07:08:20.095Z,12.27
2023-05-10T07:09:52.652Z,12.33
2023-05-10T07:11:25.178Z,12.35
2023-05-10T07:12:57.371Z,12.35
2023-05-10T07:14:29.609Z,12.35
2023-05-10T07:16:03.379Z,12.39
2023-05-10T07:17:35.770Z,12.43
2023-05-10T07:19:08.233Z,12.44
2023-05-10T07:20:40.320Z,12.49
2023-05-10T07:22:12.932Z,12.53
2023-05-10T07:23:45.305Z,12.56
2023-05-10T07:25:17.829Z,12.59
2023-05-10T07:26:50.165Z,12.61
2023-05-10T07:28:22.466Z,12.61
2023-05-10T07:29:54.642Z,12.62
2023-05-10T07:31:26.769Z,12.66
2023-05-10T07:32:59.102Z,12.72
2023-05-10T08:16:41.534Z,13.62
2023-05-10T08:18:13.776Z,13.63
2023-05-10T08:19:46.082Z,13.67
2023-05-10T08:21:18.256Z,13.71
2023-05-10T08:22:52.023Z,13.74
2023-05-10T08:24:24.381Z,13.78
2023-05-10T08:25:56.491Z,13.81
2023-05-10T08:27:28.647Z,13.86
2023-05-10T08:29:00.791Z,13.88
2023-05-10T08:30:33.006Z,13.85
2023-05-10T08:32:05.303Z,13.92
2023-05-10T08:33:37.560Z,13.94
2023-05-10T08:35:09.847Z,13.99
2023-05-10T08:36:41.981Z,13.90
2023-05-10T08:38:14.325Z,14.00
2023-05-10T08:39:49.310Z,14.02
2023-05-10T08:41:22.670Z,14.04
2023-05-10T08:43:04.975Z,14.05
2023-05-10T08:44:38.268Z,14.01
2023-05-10T08:46:10.297Z,14.06
2023-05-10T08:47:42.787Z,14.00
2023-05-10T08:49:19.959Z,14.07
2023-05-10T08:50:54.678Z,14.05
2023-05-10T08:52:28.149Z,14.07
2023-05-10T08:54:00.980Z,14.09
2023-05-10T08:55:34.972Z,14.13
2023-05-10T08:57:07.436Z,14.16
2023-05-10T08:58:40.182Z,14.18
2023-05-10T09:00:13.171Z,14.20
2023-05-10T09:01:47.123Z,14.25
2023-05-10T09:03:19.596Z,14.27
2023-05-10T09:04:51.751Z,14.30
2023-05-10T09:06:24.717Z,14.33
2023-05-10T09:07:57.187Z,14.35
2023-05-10T09:09:29.657Z,14.42
2023-05-10T09:11:02.898Z,14.46
2023-05-10T09:12:35.062Z,14.51
2023-05-10T09:14:07.235Z,14.57
2023-05-10T09:15:40.011Z,14.60
2023-05-10T09:17:12.296Z,14.67
2023-05-10T09:18:44.507Z,14.73
2023-05-10T09:20:18.785Z,14.76
2023-05-10T09:21:51.161Z,14.81
2023-05-10T09:23:23.571Z,14.85
2023-05-10T09:25:17.817Z,14.90
2023-05-10T09:26:50.521Z,14.92
2023-05-10T09:28:22.705Z,14.94
2023-05-10T09:29:56.467Z,15.00
2023-05-10T09:31:48.620Z,15.12
2023-05-10T09:33:21.123Z,15.08
2023-05-10T09:34:53.209Z,15.10
2023-05-10T09:36:25.454Z,15.15
2023-05-10T09:38:00.536Z,15.22
2023-05-10T09:39:37.138Z,15.22
2023-05-10T09:41:18.404Z,15.18
2023-05-10T09:42:59.788Z,15.20
2023-05-10T09:44:34.032Z,15.21
2023-05-10T09:46:11.001Z,15.27
2023-05-10T09:47:43.157Z,15.24
2023-05-10T09:49:16.185Z,15.33
2023-05-10T09:50:58.748Z,15.37
2023-05-10T09:52:50.620Z,15.46
2023-05-10T09:54:25.248Z,15.42
2023-05-10T09:55:57.565Z,15.42
2023-05-10T09:57:29.648Z,15.46
2023-05-10T09:59:05.182Z,15.48
2023-05-10T10:00:38.913Z,15.48
2023-05-10T10:02:11.463Z,15.50
2023-05-10T10:03:44.761Z,15.53
2023-05-10T10:05:16.947Z,15.56
2023-05-10T10:07:00.293Z,15.55
2023-05-10T10:08:32.483Z,15.54
2023-05-10T10:10:06.183Z,15.57
2023-05-10T10:11:39.857Z,15.63
2023-05-10T10:13:12.283Z,15.65
2023-05-10T10:14:44.987Z,15.72
2023-05-10T10:16:17.351Z,15.80
2023-05-10T10:17:50.370Z,15.85
2023-05-10T10:19:22.867Z,15.86
2023-05-10T10:20:55.898Z,15.93
2023-05-10T10:22:28.102Z,15.94
2023-05-10T10:24:00.293Z,15.95
2023-05-10T10:25:32.713Z,15.96
2023-05-10T10:27:20.486Z,15.99
2023-05-10T10:29:26.496Z,15.97
2023-05-10T10:31:03.565Z,15.87
2023-05-10T10:33:20.183Z,15.88
2023-05-10T10:34:59.452Z,15.85
2023-05-10T10:36:31.878Z,15.88
2023-05-10T10:38:04.059Z,15.93
2023-05-10T10:39:38.082Z,15.98
2023-05-10T10:41:29.368Z,16.02
2023-05-10T10:43:24.495Z,16.07
2023-05-10T10:45:13.943Z,16.11
2023-05-10T10:47:07.687Z,16.15
2023-05-10T10:48:39.964Z,16.09
2023-05-10T10:50:14.248Z,16.13
2023-05-10T10:52:18.145Z,16.22
2023-05-10T10:53:50.599Z,16.23
2023-05-10T10:55:25.056Z,16.26
2023-05-10T10:57:16.214Z,16.38
2023-05-10T10:58:53.957Z,16.45
2023-05-10T11:00:38.003Z,16.53
2023-05-10T11:02:10.374Z,16.52
2023-05-10T11:04:03.233Z,16.54
2023-05-10T11:05:52.571Z,16.62
2023-05-10T11:07:24.684Z,16.62
2023-05-10T11:08:56.740Z,16.64
2023-05-10T11:10:30.147Z,16.63
2023-05-10T11:12:09.980Z,16.71
2023-05-10T11:13:49.160Z,16.73
2023-05-10T11:15:31.305Z,16.79
2023-05-10T11:17:03.499Z,16.78
2023-05-10T11:18:38.149Z,16.84
2023-05-10T11:20:16.316Z,16.85
2023-05-10T11:21:55.421Z,16.86
2023-05-10T11:23:34.949Z,16.89
2023-05-10T11:25:07.755Z,16.85
2023-05-10T11:26:39.949Z,16.84
2023-05-10T11:29:46.913Z,16.79
2023-05-10T11:31:19.495Z,16.89
2023-05-10T11:32:51.722Z,16.89
2023-05-10T11:34:28.011Z,17.03
2023-05-10T11:36:00.272Z,16.97
2023-05-10T11:37:35.680Z,17.02
2023-05-10T11:39:07.831Z,17.08
2023-05-10T11:40:41.232Z,17.16
2023-05-10T11:42:13.822Z,17.22
2023-05-10T11:43:49.047Z,17.24
2023-05-10T11:45:21.271Z,17.12
2023-05-10T11:46:53.527Z,17.03
2023-05-10T11:48:25.797Z,17.08
2023-05-10T11:49:58.775Z,17.07
2023-05-10T11:51:31.528Z,16.98
2023-05-10T11:53:03.670Z,17.01
2023-05-10T11:54:36.512Z,17.02
2023-05-10T11:56:10.576Z,17.06
2023-05-10T11:57:43.961Z,17.09
2023-05-10T11:59:16.252Z,17.15
2023-05-10T12:00:48.813Z,17.09
2023-05-10T12:02:20.982Z,17.08
2023-05-10T12:03:54.847Z,17.03
2023-05-10T12:05:27.233Z,17.05
2023-05-10T12:06:59.554Z,17.08
2023-05-10T12:08:32.277Z,17.13
2023-05-10T12:10:16.166Z,17.14
2023-05-10T12:11:48.606Z,17.13
2023-05-10T12:13:21.982Z,17.15
2023-05-10T12:14:54.115Z,17.12
2023-05-10T12:16:28.429Z,17.13
2023-05-10T12:18:01.274Z,17.10
2023-05-10T12:19:40.289Z,17.10
2023-05-10T12:21:16.699Z,17.00
2023-05-10T12:22:53.156Z,17.04
2023-05-10T12:24:26.779Z,17.03
2023-05-10T12:26:05.593Z,17.04
2023-05-10T12:27:37.922Z,17.08
2023-05-10T12:29:20.793Z,17.13
2023-05-10T12:30:54.843Z,17.10
2023-05-10T12:32:53.706Z,17.09
2023-05-10T12:34:32.848Z,17.08
2023-05-10T12:36:05.239Z,16.99
2023-05-10T12:37:40.333Z,16.92
2023-05-10T12:39:13.067Z,16.95
2023-05-10T12:40:45.188Z,16.96
2023-05-10T12:42:18.067Z,17.03
2023-05-10T12:43:50.236Z,17.04
2023-05-10T12:45:22.419Z,17.03
2023-05-10T12:46:54.476Z,17.06
2023-05-10T12:48:26.581Z,17.09
2023-05-10T12:49:58.813Z,17.11
2023-05-10T12:51:32.168Z,17.11
2023-05-10T12:53:04.157Z,17.15
2023-05-10T12:54:39.246Z,17.16
2023-05-10T12:56:11.386Z,17.18
2023-05-10T12:57:43.443Z,17.16
2023-05-10T12:59:15.683Z,17.17
2023-05-10T13:00:48.074Z,17.17
2023-05-10T13:02:20.676Z,17.20
2023-05-10T13:03:53.006Z,17.23
2023-05-10T13:05:25.083Z,17.16
2023-05-10T13:07:00.168Z,17.20
2023-05-10T13:08:34.864Z,17.21
2023-05-10T13:10:08.047Z,17.26
2023-05-10T13:11:40.228Z,17.27
2023-05-10T13:13:12.424Z,17.30
2023-05-10T13:14:44.618Z,17.33
2023-05-10T13:16:16.784Z,17.36
2023-05-10T13:17:49.344Z,17.39
2023-05-10T13:19:21.689Z,17.38
2023-05-10T13:20:55.358Z,17.42
2023-05-10T13:22:39.265Z,17.43
2023-05-10T13:24:15.171Z,17.47
2023-05-10T13:25:47.388Z,17.46
2023-05-10T13:27:19.621Z,17.47
2023-05-10T13:28:53.052Z,17.47
2023-05-10T13:30:25.486Z,17.49
2023-05-10T13:31:57.792Z,17.44
2023-05-10T13:33:29.921Z,17.39
2023-05-10T13:35:02.184Z,17.36
2023-05-10T13:36:34.335Z,17.35
2023-05-10T13:38:09.263Z,17.33
2023-05-10T13:39:41.462Z,17.27
2023-05-10T13:41:13.690Z,17.23
2023-05-10T13:42:45.935Z,17.24
2023-05-10T13:44:18.090Z,17.25
2023-05-10T13:45:50.243Z,17.25
2023-05-10T13:47:23.089Z,17.22
2023-05-10T13:48:55.651Z,17.23
2023-05-10T13:50:28.372Z,17.23
2023-05-10T13:52:00.576Z,17.20
2023-05-10T13:53:32.739Z,17.23
2023-05-10T13:55:05.308Z,17.23
2023-05-10T13:56:42.236Z,17.26
2023-05-10T13:58:14.528Z,17.18
2023-05-10T13:59:46.832Z,17.13
2023-05-10T14:01:19.018Z,17.17
2023-05-10T14:02:51.292Z,17.15
2023-05-10T14:04:23.477Z,17.14
2023-05-10T14:05:55.616Z,17.15
2023-05-10T14:07:27.797Z,17.14
2023-05-10T14:09:00.068Z,17.13
2023-05-10T14:10:32.222Z,17.11
2023-05-10T14:12:04.433Z,17.11
2023-05-10T14:13:36.905Z,17.10
2023-05-10T14:15:09.577Z,17.09
2023-05-10T14:16:45.635Z,17.07
2023-05-10T14:18:17.809Z,17.06
2023-05-10T14:19:49.993Z,17.02
2023-05-10T14:21:22.127Z,17.04
2023-05-10T14:22:54.239Z,17.05
2023-05-10T14:24:26.392Z,17.02
2023-05-10T14:25:58.787Z,16.97
2023-05-10T14:27:31.680Z,16.97
2023-05-10T14:29:03.804Z,16.96
2023-05-10T14:30:35.930Z,16.98
2023-05-10T14:32:08.437Z,16.98
2023-05-10T14:33:40.594Z,16.98
2023-05-10T14:35:16.038Z,17.01
2023-05-10T14:36:49.896Z,17.02
2023-05-10T14:38:22.042Z,16.97
2023-05-10T14:39:54.101Z,16.96
2023-05-10T14:41:26.352Z,16.95
2023-05-10T14:42:58.467Z,16.97
2023-05-10T14:44:30.745Z,16.97
2023-05-10T14:46:02.989Z,16.98
2023-05-10T14:47:35.356Z,17.01
2023-05-10T14:49:07.848Z,16.99
2023-05-10T14:50:41.025Z,16.97
2023-05-10T14:53:09.233Z,17.05
2023-05-10T14:54:41.808Z,16.99
2023-05-10T14:56:13.992Z,16.98
2023-05-10T14:57:47.884Z,17.02
2023-05-10T14:59:20.017Z,17.03
2023-05-10T15:00:52.862Z,17.05
2023-05-10T15:02:25.663Z,16.97
2023-05-10T15:03:58.288Z,16.99
2023-05-10T15:05:30.840Z,17.02
2023-05-10T15:07:03.761Z,17.04
2023-05-10T15:08:35.961Z,17.03
2023-05-10T15:10:08.778Z,17.04
2023-05-10T15:11:40.993Z,17.02
2023-05-10T15:13:13.210Z,17.03
2023-05-10T15:14:45.654Z,17.03
2023-05-10T15:16:17.840Z,17.03
2023-05-10T15:17:49.988Z,16.96
2023-05-10T15:19:22.340Z,16.94
2023-05-10T15:20:54.493Z,16.94
2023-05-10T15:22:27.059Z,16.96
2023-05-10T15:23:59.189Z,16.96
2023-05-10T15:25:32.328Z,16.93
2023-05-10T15:27:04.587Z,16.93
2023-05-10T15:28:36.767Z,16.93
2023-05-10T15:30:09.660Z,16.93
2023-05-10T15:31:41.774Z,16.91
2023-05-10T15:33:16.239Z,16.93
2023-05-10T15:34:48.624Z,16.88
2023-05-10T15:36:21.031Z,16.88
2023-05-10T15:37:53.075Z,16.87
2023-05-10T15:39:25.180Z,16.86
2023-05-10T15:40:59.135Z,16.84
2023-05-10T15:42:32.020Z,16.84
2023-05-10T15:44:04.309Z,16.83
2023-05-10T15:47:08.330Z,16.77
2023-05-10T15:48:40.720Z,16.78
2023-05-10T15:50:13.275Z,16.78
2023-05-10T15:51:45.512Z,16.76
2023-05-10T15:53:17.801Z,16.74
2023-05-10T15:54:50.650Z,16.75
2023-05-10T15:56:23.549Z,16.72
2023-05-10T15:57:55.779Z,16.71
2023-05-10T15:59:27.904Z,16.69
2023-05-10T16:01:00.289Z,16.67
2023-05-10T16:02:32.546Z,16.61
2023-05-10T16:04:05.107Z,16.59
2023-05-10T16:05:37.214Z,16.56
2023-05-10T16:07:09.313Z,16.53
2023-05-10T16:08:41.628Z,16.52
2023-05-10T16:10:13.853Z,16.47
2023-05-10T16:11:45.944Z,16.46
2023-05-10T16:13:18.132Z,16.45
2023-05-10T16:16:36.328Z,16.41
2023-05-10T16:18:08.499Z,16.36
2023-05-10T16:19:41.456Z,16.31
2023-05-10T16:21:13.617Z,16.35
2023-05-10T16:22:45.829Z,16.30
2023-05-10T16:24:18.065Z,16.32
2023-05-10T16:25:50.410Z,16.30
2023-05-10T16:27:22.553Z,16.30
2023-05-10T16:28:54.977Z,16.29
2023-05-10T16:30:29.671Z,16.30
2023-05-10T16:32:02.140Z,16.25
2023-05-10T16:33:34.248Z,16.23
2023-05-10T16:35:07.017Z,16.21
2023-05-10T16:36:39.138Z,16.15
2023-05-10T16:38:14.641Z,16.12
2023-05-10T16:39:46.893Z,16.12
2023-05-10T16:41:19.391Z,16.09
2023-05-10T16:42:51.761Z,16.08
2023-05-10T16:46:11.009Z,16.05
2023-05-10T16:47:43.685Z,16.02
2023-05-10T16:49:16.051Z,15.97
2023-05-10T16:50:48.673Z,15.95
2023-05-10T16:52:20.832Z,15.93
2023-05-10T16:53:53.898Z,15.91
2023-05-10T16:55:26.537Z,15.88
2023-05-10T16:56:59.019Z,15.87
2023-05-10T16:58:31.141Z,15.87
2023-05-10T17:00:04.602Z,15.86
2023-05-10T17:01:36.736Z,15.86
2023-05-10T17:03:09.177Z,15.84
2023-05-10T17:04:43.045Z,15.83
2023-05-10T17:06:15.278Z,15.81
2023-05-10T17:07:47.487Z,15.79
2023-05-10T17:09:20.668Z,15.79
2023-05-10T17:10:52.764Z,15.80
2023-05-10T17:12:24.897Z,15.80
2023-05-10T17:13:57.098Z,15.78
2023-05-10T17:15:29.500Z,15.76
2023-05-10T17:17:01.721Z,15.75
2023-05-10T17:18:34.203Z,15.71
2023-05-10T17:21:46.162Z,15.64
2023-05-10T17:23:20.315Z,15.66
2023-05-10T17:24:52.460Z,15.57
2023-05-10T17:26:24.612Z,15.49
2023-05-10T17:27:56.726Z,15.43
2023-05-10T17:29:29.531Z,15.35
2023-05-10T17:31:02.663Z,15.31
2023-05-10T17:32:34.828Z,15.29
2023-05-10T17:34:07.130Z,15.27
2023-05-10T17:35:39.529Z,15.25
2023-05-10T17:37:11.647Z,15.24
2023-05-10T17:38:43.886Z,15.24
2023-05-10T17:40:16.405Z,15.21
2023-05-10T17:41:48.632Z,15.18
2023-05-10T17:43:21.304Z,15.14
2023-05-10T17:44:53.470Z,15.07
2023-05-10T17:46:25.703Z,15.06
2023-05-10T17:47:58.001Z,15.03
2023-05-10T17:49:30.167Z,15.02
2023-05-10T17:51:02.441Z,14.97
2023-05-10T17:52:34.583Z,14.92
2023-05-10T17:55:42.594Z,14.94
2023-05-10T17:57:15.424Z,14.94
2023-05-10T17:58:47.622Z,14.96
2023-05-10T18:00:19.871Z,14.98
2023-05-10T18:01:51.992Z,14.98
2023-05-10T18:03:24.431Z,14.99
2023-05-10T18:04:58.327Z,14.95
2023-05-10T18:06:32.873Z,14.94
2023-05-10T18:08:06.023Z,14.89
2023-05-10T18:09:38.581Z,14.84
2023-05-10T18:11:10.697Z,14.83
2023-05-10T18:12:42.904Z,14.81
2023-05-10T18:14:17.205Z,14.80
2023-05-10T18:15:57.713Z,14.78
2023-05-10T18:17:30.124Z,14.78
2023-05-10T18:19:02.483Z,14.77
2023-05-10T18:20:35.103Z,14.75
2023-05-10T18:22:10.453Z,14.73
2023-05-10T18:23:43.067Z,14.68
2023-05-10T18:25:15.443Z,14.65
2023-05-10T18:26:48.091Z,14.64
2023-05-10T18:28:20.280Z,14.62
2023-05-10T18:29:52.452Z,14.59
2023-05-10T18:31:24.731Z,14.55
2023-05-10T18:32:57.916Z,14.52
2023-05-10T18:34:30.126Z,14.49
2023-05-10T18:36:02.867Z,14.47
2023-05-10T18:37:35.652Z,14.45
2023-05-10T18:39:08.828Z,14.39
2023-05-10T18:40:43.598Z,14.38
2023-05-10T18:42:15.980Z,14.30
2023-05-10T18:43:48.180Z,14.24
2023-05-10T18:45:20.841Z,14.20
2023-05-10T18:46:54.710Z,14.11
2023-05-10T18:48:26.903Z,14.05
2023-05-10T18:49:58.980Z,14.01
2023-05-10T18:51:31.961Z,13.96
2023-05-10T18:53:04.158Z,13.94
2023-05-10T18:54:36.308Z,13.90
2023-05-10T18:56:08.645Z,13.86
2023-05-10T18:57:43.487Z,13.80
2023-05-10T18:59:15.989Z,13.74
2023-05-10T19:00:48.836Z,13.71
2023-05-10T19:02:21.345Z,13.65
2023-05-10T19:03:53.521Z,13.62
2023-05-10T19:05:30.513Z,13.58
2023-05-10T19:07:03.822Z,13.55
2023-05-10T19:08:36.112Z,13.53
2023-05-10T19:10:08.993Z,13.55
2023-05-10T19:11:44.110Z,13.55
2023-05-10T19:13:16.237Z,13.54
2023-05-10T19:14:48.396Z,13.54
2023-05-10T19:16:23.468Z,13.57
2023-05-10T19:17:55.892Z,13.56
2023-05-10T19:19:31.817Z,13.55
2023-05-10T19:21:06.146Z,13.56
2023-05-10T19:22:54.182Z,13.55
2023-05-10T19:24:30.473Z,13.56
2023-05-10T19:26:02.637Z,13.56
2023-05-10T19:27:34.779Z,13.54
2023-05-10T19:29:09.553Z,13.53
2023-05-10T19:30:41.758Z,13.52
2023-05-10T19:32:13.909Z,13.50
2023-05-10T19:33:46.880Z,13.46
2023-05-10T19:35:19.188Z,13.43
2023-05-10T19:36:51.553Z,13.40
2023-05-10T19:38:24.371Z,13.38
2023-05-10T19:39:56.631Z,13.36
2023-05-10T19:41:28.902Z,13.34
2023-05-10T19:43:00.997Z,13.34
2023-05-10T19:44:33.365Z,13.31
2023-05-10T19:46:05.939Z,13.31
2023-05-10T19:47:38.263Z,13.27
2023-05-10T19:49:10.421Z,13.26
2023-05-10T19:50:42.518Z,13.25
2023-05-10T19:52:14.704Z,13.24
2023-05-10T19:53:46.955Z,13.24
2023-05-10T19:55:29.986Z,13.26
2023-05-10T19:57:02.117Z,13.22
2023-05-10T19:58:34.677Z,13.20
2023-05-10T20:00:07.380Z,13.19
2023-05-10T20:01:39.501Z,13.14
2023-05-10T20:03:12.059Z,13.10
2023-05-10T20:04:44.213Z,13.12
2023-05-10T20:06:16.378Z,13.11
2023-05-10T20:07:48.547Z,13.08
2023-05-10T20:09:20.942Z,13.08
2023-05-10T20:10:53.035Z,13.05
2023-05-10T20:12:25.391Z,13.02
2023-05-10T20:13:57.494Z,13.03
2023-05-10T20:15:29.829Z,13.02
2023-05-10T20:17:01.986Z,13.01
2023-05-10T20:18:34.292Z,12.99
2023-05-10T20:20:07.107Z,12.98
2023-05-10T20:21:39.197Z,12.98
2023-05-10T20:24:43.418Z,12.99
2023-05-10T20:26:15.512Z,12.98
2023-05-10T20:27:47.711Z,12.97
2023-05-10T20:29:19.857Z,12.96
2023-05-10T20:30:53.415Z,13.00
2023-05-10T20:32:25.575Z,12.99
2023-05-10T20:33:57.709Z,12.99
2023-05-10T20:35:29.863Z,13.00
2023-05-10T20:37:02.455Z,12.99
2023-05-10T20:38:34.539Z,12.98
2023-05-10T20:40:07.299Z,12.95
2023-05-10T20:41:39.619Z,12.93
2023-05-10T20:43:11.939Z,12.90
2023-05-10T20:44:44.011Z,12.86
2023-05-10T20:46:16.282Z,12.86
2023-05-10T20:47:48.444Z,12.84
2023-05-10T20:49:20.790Z,12.81
2023-05-10T20:50:52.896Z,12.81
2023-05-10T20:52:28.172Z,12.79
2023-05-10T20:54:02.190Z,12.79
2023-05-10T20:55:34.339Z,12.76
2023-05-10T20:57:06.849Z,12.76
2023-05-10T20:58:38.981Z,12.74
2023-05-10T21:00:11.803Z,12.75
2023-05-10T21:01:44.340Z,12.73
2023-05-10T21:03:16.774Z,12.69
2023-05-10T21:04:49.122Z,12.72
2023-05-10T21:06:21.309Z,12.70
2023-05-10T21:07:54.625Z,12.69
2023-05-10T21:09:26.816Z,12.66
2023-05-10T21:10:59.610Z,12.66
2023-05-10T21:12:32.256Z,12.66
2023-05-10T21:14:04.968Z,12.64
2023-05-10T21:15:37.124Z,12.60
2023-05-10T21:17:09.443Z,12.59
2023-05-10T21:18:41.604Z,12.59